sensor_id;sensor_type;location;lat;lon;timestamp;P1;durP1;ratioP1;P2;durP2;ratioP2
26578;SDS011;14227;47.674;19.320;2023-05-29T00:02:08;39.35;;;18.40;;
26578;SDS011;14227;47.674;19.320;2023-05-29T00:04:34;28.13;;;15.27;;
26578;SDS011;14227;47.674;19.320;2023-05-29T00:07:00;37.85;;;17.77;;
26578;SDS011;14227;47.674;19.320;2023-05-29T00:09:26;39.53;;;18.85;;
26578;SDS011;14227;47.674;19.320;2023-05-29T00:11:53;32.85;;;16.60;;
26578;SDS011;14227;47.674;19.320;2023-05-29T00:14:19;41.80;;;19.40;;
26578;SDS011;14227;47.674;19.320;2023-05-29T00:16:45;43.15;;;18.70;;
26578;SDS011;14227;47.674;19.320;2023-05-29T00:19:12;39.10;;;17.77;;
26578;SDS011;14227;47.674;19.320;2023-05-29T00:21:39;45.88;;;20.13;;
26578;SDS011;14227;47.674;19.320;2023-05-29T00:24:05;45.83;;;20.75;;
26578;SDS011;14227;47.674;19.320;2023-05-29T00:26:31;40.70;;;19.30;;
26578;SDS011;14227;47.674;19.320;2023-05-29T00:28:57;47.72;;;20.55;;
26578;SDS011;14227;47.674;19.320;2023-05-29T00:31:22;36.72;;;17.90;;
26578;SDS011;14227;47.674;19.320;2023-05-29T00:33:49;51.70;;;19.80;;
26578;SDS011;14227;47.674;19.320;2023-05-29T00:36:15;43.42;;;19.70;;
26578;SDS011;14227;47.674;19.320;2023-05-29T00:38:41;45.83;;;20.75;;
26578;SDS011;14227;47.674;19.320;2023-05-29T00:41:07;41.35;;;18.67;;
26578;SDS011;14227;47.674;19.320;2023-05-29T00:43:33;40.50;;;17.92;;
26578;SDS011;14227;47.674;19.320;2023-05-29T00:45:59;46.63;;;20.08;;
26578;SDS011;14227;47.674;19.320;2023-05-29T00:48:25;43.03;;;19.13;;
26578;SDS011;14227;47.674;19.320;2023-05-29T00:50:51;37.90;;;16.92;;
26578;SDS011;14227;47.674;19.320;2023-05-29T00:53:17;42.45;;;17.27;;
26578;SDS011;14227;47.674;19.320;2023-05-29T00:55:43;39.50;;;18.75;;
26578;SDS011;14227;47.674;19.320;2023-05-29T00:58:09;29.73;;;16.13;;
26578;SDS011;14227;47.674;19.320;2023-05-29T01:00:35;45.28;;;18.17;;
26578;SDS011;14227;47.674;19.320;2023-05-29T01:03:02;44.08;;;18.02;;
26578;SDS011;14227;47.674;19.320;2023-05-29T01:05:30;25.30;;;14.88;;
26578;SDS011;14227;47.674;19.320;2023-05-29T01:08:01;29.10;;;15.82;;
26578;SDS011;14227;47.674;19.320;2023-05-29T01:10:27;39.13;;;18.35;;
26578;SDS011;14227;47.674;19.320;2023-05-29T01:13:14;28.15;;;13.65;;
26578;SDS011;14227;47.674;19.320;2023-05-29T01:18:34;34.50;;;18.67;;
26578;SDS011;14227;47.674;19.320;2023-05-29T01:23:53;35.97;;;18.75;;
26578;SDS011;14227;47.674;19.320;2023-05-29T01:29:13;36.45;;;16.15;;
26578;SDS011;14227;47.674;19.320;2023-05-29T01:31:43;50.03;;;19.55;;
26578;SDS011;14227;47.674;19.320;2023-05-29T01:34:09;42.25;;;20.77;;
26578;SDS011;14227;47.674;19.320;2023-05-29T01:36:35;49.40;;;19.50;;
26578;SDS011;14227;47.674;19.320;2023-05-29T01:39:01;39.30;;;18.75;;
26578;SDS011;14227;47.674;19.320;2023-05-29T01:41:27;38.55;;;16.75;;
26578;SDS011;14227;47.674;19.320;2023-05-29T01:43:55;39.65;;;17.83;;
26578;SDS011;14227;47.674;19.320;2023-05-29T01:46:22;38.25;;;18.38;;
26578;SDS011;14227;47.674;19.320;2023-05-29T01:48:50;28.13;;;14.70;;
26578;SDS011;14227;47.674;19.320;2023-05-29T01:51:16;29.38;;;15.02;;
26578;SDS011;14227;47.674;19.320;2023-05-29T01:53:42;41.60;;;18.95;;
26578;SDS011;14227;47.674;19.320;2023-05-29T01:56:09;33.15;;;16.52;;
26578;SDS011;14227;47.674;19.320;2023-05-29T01:58:35;34.90;;;18.20;;
26578;SDS011;14227;47.674;19.320;2023-05-29T02:01:03;33.45;;;17.25;;
26578;SDS011;14227;47.674;19.320;2023-05-29T02:03:31;32.47;;;18.35;;
26578;SDS011;14227;47.674;19.320;2023-05-29T02:05:57;56.03;;;23.38;;
26578;SDS011;14227;47.674;19.320;2023-05-29T02:08:24;41.75;;;19.25;;
26578;SDS011;14227;47.674;19.320;2023-05-29T02:10:50;42.80;;;21.02;;
26578;SDS011;14227;47.674;19.320;2023-05-29T02:13:16;39.75;;;20.25;;
26578;SDS011;14227;47.674;19.320;2023-05-29T02:15:42;40.78;;;19.60;;
26578;SDS011;14227;47.674;19.320;2023-05-29T02:18:09;34.55;;;17.90;;
26578;SDS011;14227;47.674;19.320;2023-05-29T02:20:39;30.92;;;15.80;;
26578;SDS011;14227;47.674;19.320;2023-05-29T02:23:06;44.05;;;18.92;;
26578;SDS011;14227;47.674;19.320;2023-05-29T02:25:34;41.65;;;20.10;;
26578;SDS011;14227;47.674;19.320;2023-05-29T02:28:00;42.70;;;19.02;;
26578;SDS011;14227;47.674;19.320;2023-05-29T02:30:27;28.80;;;14.68;;
26578;SDS011;14227;47.674;19.320;2023-05-29T02:32:53;32.92;;;14.43;;
26578;SDS011;14227;47.674;19.320;2023-05-29T02:35:19;39.50;;;19.75;;
26578;SDS011;14227;47.674;19.320;2023-05-29T02:37:47;27.92;;;16.27;;
26578;SDS011;14227;47.674;19.320;2023-05-29T02:40:14;29.20;;;15.70;;
26578;SDS011;14227;47.674;19.320;2023-05-29T02:42:40;35.85;;;18.38;;
26578;SDS011;14227;47.674;19.320;2023-05-29T02:45:05;30.70;;;17.60;;
26578;SDS011;14227;47.674;19.320;2023-05-29T02:47:31;35.33;;;18.48;;
26578;SDS011;14227;47.674;19.320;2023-05-29T02:49:57;49.75;;;21.33;;
26578;SDS011;14227;47.674;19.320;2023-05-29T02:52:23;35.50;;;17.00;;
26578;SDS011;14227;47.674;19.320;2023-05-29T02:54:49;31.55;;;16.75;;
26578;SDS011;14227;47.674;19.320;2023-05-29T02:57:15;34.88;;;18.27;;
26578;SDS011;14227;47.674;19.320;2023-05-29T02:59:40;21.92;;;12.95;;
26578;SDS011;14227;47.674;19.320;2023-05-29T03:02:07;38.38;;;19.08;;
26578;SDS011;14227;47.674;19.320;2023-05-29T03:04:33;38.08;;;19.45;;
26578;SDS011;14227;47.674;19.320;2023-05-29T03:06:59;30.65;;;14.52;;
26578;SDS011;14227;47.674;19.320;2023-05-29T03:09:25;33.92;;;16.42;;
26578;SDS011;14227;47.674;19.320;2023-05-29T03:11:50;30.45;;;15.68;;
26578;SDS011;14227;47.674;19.320;2023-05-29T03:14:17;34.65;;;15.70;;
26578;SDS011;14227;47.674;19.320;2023-05-29T03:16:43;31.42;;;16.50;;
26578;SDS011;14227;47.674;19.320;2023-05-29T03:19:09;41.85;;;18.67;;
26578;SDS011;14227;47.674;19.320;2023-05-29T03:21:35;35.97;;;18.45;;
26578;SDS011;14227;47.674;19.320;2023-05-29T03:24:01;27.40;;;14.50;;
26578;SDS011;14227;47.674;19.320;2023-05-29T03:26:28;25.02;;;14.65;;
26578;SDS011;14227;47.674;19.320;2023-05-29T03:28:54;23.83;;;14.48;;
26578;SDS011;14227;47.674;19.320;2023-05-29T03:31:20;27.05;;;15.55;;
26578;SDS011;14227;47.674;19.320;2023-05-29T03:33:46;28.15;;;13.95;;
26578;SDS011;14227;47.674;19.320;2023-05-29T03:36:13;30.52;;;16.27;;
26578;SDS011;14227;47.674;19.320;2023-05-29T03:38:39;36.10;;;18.83;;
26578;SDS011;14227;47.674;19.320;2023-05-29T03:41:04;34.60;;;18.00;;
26578;SDS011;14227;47.674;19.320;2023-05-29T03:43:30;29.38;;;15.30;;
26578;SDS011;14227;47.674;19.320;2023-05-29T03:45:56;32.67;;;18.42;;
26578;SDS011;14227;47.674;19.320;2023-05-29T03:48:21;21.60;;;12.60;;
26578;SDS011;14227;47.674;19.320;2023-05-29T03:50:47;31.27;;;16.35;;
26578;SDS011;14227;47.674;19.320;2023-05-29T03:53:14;33.42;;;15.13;;
26578;SDS011;14227;47.674;19.320;2023-05-29T03:55:40;39.55;;;17.42;;
26578;SDS011;14227;47.674;19.320;2023-05-29T03:58:06;30.20;;;15.70;;
26578;SDS011;14227;47.674;19.320;2023-05-29T04:00:32;28.00;;;15.55;;
26578;SDS011;14227;47.674;19.320;2023-05-29T04:02:58;29.73;;;17.45;;
26578;SDS011;14227;47.674;19.320;2023-05-29T04:05:24;28.02;;;15.40;;
26578;SDS011;14227;47.674;19.320;2023-05-29T04:07:50;29.38;;;17.92;;
26578;SDS011;14227;47.674;19.320;2023-05-29T04:10:16;28.20;;;15.73;;
26578;SDS011;14227;47.674;19.320;2023-05-29T04:12:42;24.88;;;14.13;;
26578;SDS011;14227;47.674;19.320;2023-05-29T04:15:08;20.25;;;12.93;;
26578;SDS011;14227;47.674;19.320;2023-05-29T04:17:34;22.25;;;11.00;;
26578;SDS011;14227;47.674;19.320;2023-05-29T04:19:59;31.70;;;14.80;;
26578;SDS011;14227;47.674;19.320;2023-05-29T04:22:31;19.27;;;12.45;;
26578;SDS011;14227;47.674;19.320;2023-05-29T04:24:56;23.40;;;13.55;;
26578;SDS011;14227;47.674;19.320;2023-05-29T04:27:22;25.10;;;15.30;;
26578;SDS011;14227;47.674;19.320;2023-05-29T04:29:48;30.73;;;17.33;;
26578;SDS011;14227;47.674;19.320;2023-05-29T04:32:13;29.08;;;16.63;;
26578;SDS011;14227;47.674;19.320;2023-05-29T04:34:39;30.75;;;16.27;;
26578;SDS011;14227;47.674;19.320;2023-05-29T04:37:05;25.38;;;13.25;;
26578;SDS011;14227;47.674;19.320;2023-05-29T04:39:31;25.60;;;12.27;;
26578;SDS011;14227;47.674;19.320;2023-05-29T04:41:57;19.77;;;11.60;;
26578;SDS011;14227;47.674;19.320;2023-05-29T04:44:26;23.00;;;13.73;;
26578;SDS011;14227;47.674;19.320;2023-05-29T04:46:52;22.77;;;12.80;;
26578;SDS011;14227;47.674;19.320;2023-05-29T04:49:18;20.70;;;13.95;;
26578;SDS011;14227;47.674;19.320;2023-05-29T04:51:45;23.58;;;12.43;;
26578;SDS011;14227;47.674;19.320;2023-05-29T04:54:11;22.98;;;13.48;;
26578;SDS011;14227;47.674;19.320;2023-05-29T04:56:37;22.55;;;12.35;;
26578;SDS011;14227;47.674;19.320;2023-05-29T04:59:05;20.15;;;12.27;;
26578;SDS011;14227;47.674;19.320;2023-05-29T05:01:32;19.15;;;11.60;;
26578;SDS011;14227;47.674;19.320;2023-05-29T05:03:58;23.45;;;12.07;;
26578;SDS011;14227;47.674;19.320;2023-05-29T05:06:25;26.25;;;10.77;;
26578;SDS011;14227;47.674;19.320;2023-05-29T05:08:54;19.73;;;10.10;;
26578;SDS011;14227;47.674;19.320;2023-05-29T05:11:21;17.02;;;9.90;;
26578;SDS011;14227;47.674;19.320;2023-05-29T05:13:48;15.13;;;9.02;;
26578;SDS011;14227;47.674;19.320;2023-05-29T05:16:14;16.83;;;8.38;;
26578;SDS011;14227;47.674;19.320;2023-05-29T05:18:40;13.27;;;8.13;;
26578;SDS011;14227;47.674;19.320;2023-05-29T05:21:05;12.13;;;8.00;;
26578;SDS011;14227;47.674;19.320;2023-05-29T05:23:31;14.80;;;8.05;;
26578;SDS011;14227;47.674;19.320;2023-05-29T05:25:57;13.80;;;7.75;;
26578;SDS011;14227;47.674;19.320;2023-05-29T05:28:23;13.90;;;7.05;;
26578;SDS011;14227;47.674;19.320;2023-05-29T05:30:49;22.80;;;8.52;;
26578;SDS011;14227;47.674;19.320;2023-05-29T05:33:16;24.98;;;7.22;;
26578;SDS011;14227;47.674;19.320;2023-05-29T05:35:41;15.68;;;6.53;;
26578;SDS011;14227;47.674;19.320;2023-05-29T05:38:07;15.27;;;6.63;;
26578;SDS011;14227;47.674;19.320;2023-05-29T05:40:33;13.40;;;7.03;;
26578;SDS011;14227;47.674;19.320;2023-05-29T05:42:58;11.13;;;6.55;;
26578;SDS011;14227;47.674;19.320;2023-05-29T05:45:24;10.45;;;6.28;;
26578;SDS011;14227;47.674;19.320;2023-05-29T05:47:50;15.35;;;6.60;;
26578;SDS011;14227;47.674;19.320;2023-05-29T05:50:16;12.27;;;5.85;;
26578;SDS011;14227;47.674;19.320;2023-05-29T05:52:41;12.25;;;6.50;;
26578;SDS011;14227;47.674;19.320;2023-05-29T05:55:07;15.98;;;6.25;;
26578;SDS011;14227;47.674;19.320;2023-05-29T05:57:33;9.18;;;5.55;;
26578;SDS011;14227;47.674;19.320;2023-05-29T06:00:00;14.38;;;6.05;;
26578;SDS011;14227;47.674;19.320;2023-05-29T06:02:29;10.52;;;5.30;;
26578;SDS011;14227;47.674;19.320;2023-05-29T06:04:55;13.88;;;5.43;;
26578;SDS011;14227;47.674;19.320;2023-05-29T06:07:21;7.45;;;5.28;;
26578;SDS011;14227;47.674;19.320;2023-05-29T06:09:46;11.43;;;5.38;;
26578;SDS011;14227;47.674;19.320;2023-05-29T06:12:12;10.55;;;5.60;;
26578;SDS011;14227;47.674;19.320;2023-05-29T06:14:38;9.32;;;5.63;;
26578;SDS011;14227;47.674;19.320;2023-05-29T06:17:04;10.70;;;4.90;;
26578;SDS011;14227;47.674;19.320;2023-05-29T06:19:29;8.98;;;5.30;;
26578;SDS011;14227;47.674;19.320;2023-05-29T06:21:55;11.85;;;5.25;;
26578;SDS011;14227;47.674;19.320;2023-05-29T06:24:21;12.05;;;5.00;;
26578;SDS011;14227;47.674;19.320;2023-05-29T06:26:47;10.23;;;5.03;;
26578;SDS011;14227;47.674;19.320;2023-05-29T06:29:12;10.88;;;5.13;;
26578;SDS011;14227;47.674;19.320;2023-05-29T06:31:46;10.45;;;4.75;;
26578;SDS011;14227;47.674;19.320;2023-05-29T06:34:24;9.93;;;5.32;;
26578;SDS011;14227;47.674;19.320;2023-05-29T06:36:50;7.30;;;4.53;;
26578;SDS011;14227;47.674;19.320;2023-05-29T06:39:15;12.00;;;5.10;;
26578;SDS011;14227;47.674;19.320;2023-05-29T06:41:43;15.55;;;5.00;;
26578;SDS011;14227;47.674;19.320;2023-05-29T06:44:08;10.80;;;5.10;;
26578;SDS011;14227;47.674;19.320;2023-05-29T06:46:34;8.80;;;5.00;;
26578;SDS011;14227;47.674;19.320;2023-05-29T06:49:00;8.88;;;4.40;;
26578;SDS011;14227;47.674;19.320;2023-05-29T06:51:26;11.80;;;4.57;;
26578;SDS011;14227;47.674;19.320;2023-05-29T06:53:51;13.18;;;5.43;;
26578;SDS011;14227;47.674;19.320;2023-05-29T06:56:17;9.77;;;4.68;;
26578;SDS011;14227;47.674;19.320;2023-05-29T06:58:43;9.80;;;4.63;;
26578;SDS011;14227;47.674;19.320;2023-05-29T07:01:10;13.27;;;4.82;;
26578;SDS011;14227;47.674;19.320;2023-05-29T07:03:36;9.63;;;4.68;;
26578;SDS011;14227;47.674;19.320;2023-05-29T07:06:02;9.73;;;4.28;;
26578;SDS011;14227;47.674;19.320;2023-05-29T07:08:28;7.43;;;4.65;;
26578;SDS011;14227;47.674;19.320;2023-05-29T07:10:54;7.63;;;4.72;;
26578;SDS011;14227;47.674;19.320;2023-05-29T07:13:22;8.38;;;4.10;;
26578;SDS011;14227;47.674;19.320;2023-05-29T07:15:50;6.70;;;4.82;;
26578;SDS011;14227;47.674;19.320;2023-05-29T07:18:16;19.45;;;4.80;;
26578;SDS011;14227;47.674;19.320;2023-05-29T07:20:41;14.70;;;4.85;;
26578;SDS011;14227;47.674;19.320;2023-05-29T07:23:07;9.05;;;4.40;;
26578;SDS011;14227;47.674;19.320;2023-05-29T07:25:33;8.55;;;5.20;;
26578;SDS011;14227;47.674;19.320;2023-05-29T07:30:49;8.60;;;4.22;;
26578;SDS011;14227;47.674;19.320;2023-05-29T07:33:14;17.52;;;5.00;;
26578;SDS011;14227;47.674;19.320;2023-05-29T07:35:41;8.88;;;4.30;;
26578;SDS011;14227;47.674;19.320;2023-05-29T07:38:07;10.57;;;4.38;;
26578;SDS011;14227;47.674;19.320;2023-05-29T07:40:33;9.98;;;4.63;;
26578;SDS011;14227;47.674;19.320;2023-05-29T07:42:59;6.28;;;4.20;;
26578;SDS011;14227;47.674;19.320;2023-05-29T07:45:25;11.43;;;4.68;;
26578;SDS011;14227;47.674;19.320;2023-05-29T07:47:51;9.73;;;4.72;;
26578;SDS011;14227;47.674;19.320;2023-05-29T07:50:18;7.63;;;4.20;;
26578;SDS011;14227;47.674;19.320;2023-05-29T07:52:44;9.38;;;3.97;;
26578;SDS011;14227;47.674;19.320;2023-05-29T07:55:10;8.27;;;4.18;;
26578;SDS011;14227;47.674;19.320;2023-05-29T07:57:36;8.52;;;5.00;;
26578;SDS011;14227;47.674;19.320;2023-05-29T08:00:02;12.95;;;4.50;;
26578;SDS011;14227;47.674;19.320;2023-05-29T08:02:34;7.72;;;4.03;;
26578;SDS011;14227;47.674;19.320;2023-05-29T08:05:01;13.95;;;5.20;;
26578;SDS011;14227;47.674;19.320;2023-05-29T08:07:30;11.35;;;5.05;;
26578;SDS011;14227;47.674;19.320;2023-05-29T08:09:57;7.00;;;5.00;;
26578;SDS011;14227;47.674;19.320;2023-05-29T08:12:22;8.32;;;5.25;;
26578;SDS011;14227;47.674;19.320;2023-05-29T08:14:48;6.00;;;4.72;;
26578;SDS011;14227;47.674;19.320;2023-05-29T08:17:14;6.63;;;4.13;;
26578;SDS011;14227;47.674;19.320;2023-05-29T08:19:40;10.85;;;4.82;;
26578;SDS011;14227;47.674;19.320;2023-05-29T08:22:06;7.57;;;4.22;;
26578;SDS011;14227;47.674;19.320;2023-05-29T08:24:31;5.97;;;4.28;;
26578;SDS011;14227;47.674;19.320;2023-05-29T08:26:57;9.05;;;4.65;;
26578;SDS011;14227;47.674;19.320;2023-05-29T08:29:23;7.13;;;4.10;;
26578;SDS011;14227;47.674;19.320;2023-05-29T08:31:49;11.43;;;4.30;;
26578;SDS011;14227;47.674;19.320;2023-05-29T08:34:14;9.77;;;4.78;;
26578;SDS011;14227;47.674;19.320;2023-05-29T08:36:40;11.85;;;4.60;;
26578;SDS011;14227;47.674;19.320;2023-05-29T08:39:06;9.05;;;4.22;;
26578;SDS011;14227;47.674;19.320;2023-05-29T08:44:12;11.90;;;4.65;;
26578;SDS011;14227;47.674;19.320;2023-05-29T08:46:39;9.13;;;4.20;;
26578;SDS011;14227;47.674;19.320;2023-05-29T08:49:05;6.82;;;4.40;;
26578;SDS011;14227;47.674;19.320;2023-05-29T08:51:35;10.52;;;4.55;;
26578;SDS011;14227;47.674;19.320;2023-05-29T08:54:04;6.80;;;4.15;;
26578;SDS011;14227;47.674;19.320;2023-05-29T08:56:31;7.88;;;3.90;;
26578;SDS011;14227;47.674;19.320;2023-05-29T14:01:52;11.73;;;4.38;;
26578;SDS011;14227;47.674;19.320;2023-05-29T14:04:18;5.25;;;4.20;;
26578;SDS011;14227;47.674;19.320;2023-05-29T14:06:44;15.32;;;5.45;;
26578;SDS011;14227;47.674;19.320;2023-05-29T14:09:10;9.50;;;5.15;;
26578;SDS011;14227;47.674;19.320;2023-05-29T14:11:39;14.68;;;5.10;;
26578;SDS011;14227;47.674;19.320;2023-05-29T14:14:05;6.63;;;4.65;;
26578;SDS011;14227;47.674;19.320;2023-05-29T14:16:32;7.93;;;5.22;;
26578;SDS011;14227;47.674;19.320;2023-05-29T14:18:58;6.20;;;4.85;;
26578;SDS011;14227;47.674;19.320;2023-05-29T14:21:26;7.57;;;5.60;;
26578;SDS011;14227;47.674;19.320;2023-05-29T14:23:51;11.00;;;5.50;;
26578;SDS011;14227;47.674;19.320;2023-05-29T14:26:18;9.85;;;4.97;;
26578;SDS011;14227;47.674;19.320;2023-05-29T14:28:43;11.30;;;5.68;;
26578;SDS011;14227;47.674;19.320;2023-05-29T14:31:09;15.13;;;6.30;;
26578;SDS011;14227;47.674;19.320;2023-05-29T14:33:36;15.13;;;6.03;;
26578;SDS011;14227;47.674;19.320;2023-05-29T14:36:03;45.08;;;8.55;;
26578;SDS011;14227;47.674;19.320;2023-05-29T14:38:28;18.95;;;6.45;;
26578;SDS011;14227;47.674;19.320;2023-05-29T14:40:54;23.17;;;6.28;;
26578;SDS011;14227;47.674;19.320;2023-05-29T14:43:21;14.13;;;6.50;;
26578;SDS011;14227;47.674;19.320;2023-05-29T14:45:47;13.82;;;6.80;;
26578;SDS011;14227;47.674;19.320;2023-05-29T14:48:13;11.20;;;6.28;;
26578;SDS011;14227;47.674;19.320;2023-05-29T14:50:42;10.95;;;6.72;;
26578;SDS011;14227;47.674;19.320;2023-05-29T14:53:08;19.73;;;6.32;;
26578;SDS011;14227;47.674;19.320;2023-05-29T14:55:33;12.77;;;6.80;;
26578;SDS011;14227;47.674;19.320;2023-05-29T14:58:02;13.55;;;6.13;;
26578;SDS011;14227;47.674;19.320;2023-05-29T15:00:32;13.98;;;6.38;;
26578;SDS011;14227;47.674;19.320;2023-05-29T15:02:59;15.32;;;6.25;;
26578;SDS011;14227;47.674;19.320;2023-05-29T15:05:25;12.20;;;6.47;;
26578;SDS011;14227;47.674;19.320;2023-05-29T15:07:52;20.55;;;7.03;;
26578;SDS011;14227;47.674;19.320;2023-05-29T15:10:19;9.77;;;6.93;;
26578;SDS011;14227;47.674;19.320;2023-05-29T15:12:46;10.57;;;6.65;;
26578;SDS011;14227;47.674;19.320;2023-05-29T15:15:12;11.80;;;6.45;;
26578;SDS011;14227;47.674;19.320;2023-05-29T15:17:37;8.90;;;6.68;;
26578;SDS011;14227;47.674;19.320;2023-05-29T15:20:05;12.82;;;6.50;;
26578;SDS011;14227;47.674;19.320;2023-05-29T15:22:31;8.63;;;6.63;;
26578;SDS011;14227;47.674;19.320;2023-05-29T15:24:57;11.20;;;6.50;;
26578;SDS011;14227;47.674;19.320;2023-05-29T15:27:23;18.52;;;7.07;;
26578;SDS011;14227;47.674;19.320;2023-05-29T15:29:52;12.95;;;6.63;;
26578;SDS011;14227;47.674;19.320;2023-05-29T15:32:18;10.10;;;6.68;;
26578;SDS011;14227;47.674;19.320;2023-05-29T15:34:43;38.17;;;24.33;;
26578;SDS011;14227;47.674;19.320;2023-05-29T15:37:09;31.55;;;14.00;;
26578;SDS011;14227;47.674;19.320;2023-05-29T15:39:35;22.58;;;9.80;;
26578;SDS011;14227;47.674;19.320;2023-05-29T15:42:02;15.93;;;8.43;;
26578;SDS011;14227;47.674;19.320;2023-05-29T15:44:28;25.90;;;7.97;;
26578;SDS011;14227;47.674;19.320;2023-05-29T15:46:54;13.32;;;8.00;;
26578;SDS011;14227;47.674;19.320;2023-05-29T15:49:20;17.05;;;8.77;;
26578;SDS011;14227;47.674;19.320;2023-05-29T15:51:47;25.45;;;11.43;;
26578;SDS011;14227;47.674;19.320;2023-05-29T15:54:12;17.58;;;12.98;;
26578;SDS011;14227;47.674;19.320;2023-05-29T15:56:38;17.30;;;10.02;;
26578;SDS011;14227;47.674;19.320;2023-05-29T15:59:04;17.95;;;10.38;;
26578;SDS011;14227;47.674;19.320;2023-05-29T16:01:30;21.20;;;8.75;;
26578;SDS011;14227;47.674;19.320;2023-05-29T16:03:56;22.95;;;8.98;;
26578;SDS011;14227;47.674;19.320;2023-05-29T16:06:22;27.30;;;9.57;;
26578;SDS011;14227;47.674;19.320;2023-05-29T16:08:47;14.88;;;9.00;;
26578;SDS011;14227;47.674;19.320;2023-05-29T16:11:13;13.80;;;8.07;;
26578;SDS011;14227;47.674;19.320;2023-05-29T16:13:39;15.63;;;8.15;;
26578;SDS011;14227;47.674;19.320;2023-05-29T16:16:06;13.73;;;7.93;;
26578;SDS011;14227;47.674;19.320;2023-05-29T16:18:32;16.23;;;7.80;;
26578;SDS011;14227;47.674;19.320;2023-05-29T16:20:58;12.23;;;7.90;;
26578;SDS011;14227;47.674;19.320;2023-05-29T16:23:24;16.05;;;8.40;;
26578;SDS011;14227;47.674;19.320;2023-05-29T16:25:50;13.40;;;7.80;;
26578;SDS011;14227;47.674;19.320;2023-05-29T16:28:17;17.35;;;9.95;;
26578;SDS011;14227;47.674;19.320;2023-05-29T16:30:42;36.00;;;22.80;;
26578;SDS011;14227;47.674;19.320;2023-05-29T16:33:08;56.15;;;29.70;;
26578;SDS011;14227;47.674;19.320;2023-05-29T16:35:34;127.40;;;84.90;;
26578;SDS011;14227;47.674;19.320;2023-05-29T16:37:59;67.10;;;24.15;;
26578;SDS011;14227;47.674;19.320;2023-05-29T16:40:25;60.58;;;35.95;;
26578;SDS011;14227;47.674;19.320;2023-05-29T16:42:51;17.92;;;9.32;;
26578;SDS011;14227;47.674;19.320;2023-05-29T16:45:17;16.80;;;8.52;;
26578;SDS011;14227;47.674;19.320;2023-05-29T16:47:42;20.27;;;12.68;;
26578;SDS011;14227;47.674;19.320;2023-05-29T16:50:08;22.00;;;11.07;;
26578;SDS011;14227;47.674;19.320;2023-05-29T16:52:34;116.95;;;73.38;;
26578;SDS011;14227;47.674;19.320;2023-05-29T16:55:00;251.32;;;157.52;;
26578;SDS011;14227;47.674;19.320;2023-05-29T16:57:27;227.23;;;140.00;;
26578;SDS011;14227;47.674;19.320;2023-05-29T16:59:53;135.73;;;81.28;;
26578;SDS011;14227;47.674;19.320;2023-05-29T17:02:20;118.13;;;77.18;;
26578;SDS011;14227;47.674;19.320;2023-05-29T17:04:45;35.05;;;22.63;;
26578;SDS011;14227;47.674;19.320;2023-05-29T17:07:11;28.98;;;18.65;;
26578;SDS011;14227;47.674;19.320;2023-05-29T17:09:37;24.70;;;13.07;;
26578;SDS011;14227;47.674;19.320;2023-05-29T17:12:03;19.88;;;15.23;;
26578;SDS011;14227;47.674;19.320;2023-05-29T17:14:29;27.92;;;17.98;;
26578;SDS011;14227;47.674;19.320;2023-05-29T17:16:55;36.72;;;23.20;;
26578;SDS011;14227;47.674;19.320;2023-05-29T17:19:21;28.00;;;19.25;;
26578;SDS011;14227;47.674;19.320;2023-05-29T17:21:47;27.92;;;17.27;;
26578;SDS011;14227;47.674;19.320;2023-05-29T17:24:13;27.13;;;15.55;;
26578;SDS011;14227;47.674;19.320;2023-05-29T17:26:39;23.42;;;13.35;;
26578;SDS011;14227;47.674;19.320;2023-05-29T17:29:04;17.70;;;9.52;;
26578;SDS011;14227;47.674;19.320;2023-05-29T17:31:31;13.60;;;8.65;;
26578;SDS011;14227;47.674;19.320;2023-05-29T17:33:57;18.88;;;9.40;;
26578;SDS011;14227;47.674;19.320;2023-05-29T17:36:23;18.48;;;10.57;;
26578;SDS011;14227;47.674;19.320;2023-05-29T17:38:49;21.80;;;11.77;;
26578;SDS011;14227;47.674;19.320;2023-05-29T17:41:16;26.85;;;12.48;;
26578;SDS011;14227;47.674;19.320;2023-05-29T17:43:42;22.48;;;10.70;;
26578;SDS011;14227;47.674;19.320;2023-05-29T17:46:08;18.90;;;9.85;;
26578;SDS011;14227;47.674;19.320;2023-05-29T17:48:34;20.60;;;10.88;;
26578;SDS011;14227;47.674;19.320;2023-05-29T17:50:59;18.48;;;9.95;;
26578;SDS011;14227;47.674;19.320;2023-05-29T17:53:25;26.40;;;11.18;;
26578;SDS011;14227;47.674;19.320;2023-05-29T17:55:51;32.53;;;15.23;;
26578;SDS011;14227;47.674;19.320;2023-05-29T17:58:18;37.30;;;18.60;;
26578;SDS011;14227;47.674;19.320;2023-05-29T18:00:44;42.15;;;17.42;;
26578;SDS011;14227;47.674;19.320;2023-05-29T18:03:10;24.95;;;11.00;;
26578;SDS011;14227;47.674;19.320;2023-05-29T18:05:36;22.67;;;10.77;;
26578;SDS011;14227;47.674;19.320;2023-05-29T18:08:01;25.50;;;12.02;;
26578;SDS011;14227;47.674;19.320;2023-05-29T18:10:27;26.98;;;12.52;;
26578;SDS011;14227;47.674;19.320;2023-05-29T18:12:53;25.75;;;12.23;;
26578;SDS011;14227;47.674;19.320;2023-05-29T18:15:19;32.78;;;11.52;;
26578;SDS011;14227;47.674;19.320;2023-05-29T18:17:45;27.10;;;11.90;;
26578;SDS011;14227;47.674;19.320;2023-05-29T18:20:12;30.80;;;12.68;;
26578;SDS011;14227;47.674;19.320;2023-05-29T18:22:38;21.58;;;13.15;;
26578;SDS011;14227;47.674;19.320;2023-05-29T18:25:04;33.55;;;17.77;;
26578;SDS011;14227;47.674;19.320;2023-05-29T18:27:30;39.78;;;17.33;;
26578;SDS011;14227;47.674;19.320;2023-05-29T18:29:56;41.05;;;22.02;;
26578;SDS011;14227;47.674;19.320;2023-05-29T18:32:24;42.20;;;24.95;;
26578;SDS011;14227;47.674;19.320;2023-05-29T18:34:51;37.15;;;23.27;;
26578;SDS011;14227;47.674;19.320;2023-05-29T18:37:17;46.72;;;23.38;;
26578;SDS011;14227;47.674;19.320;2023-05-29T18:39:43;43.78;;;23.45;;
26578;SDS011;14227;47.674;19.320;2023-05-29T18:42:08;39.58;;;22.60;;
26578;SDS011;14227;47.674;19.320;2023-05-29T18:44:34;34.83;;;18.02;;
26578;SDS011;14227;47.674;19.320;2023-05-29T18:47:00;35.22;;;18.23;;
26578;SDS011;14227;47.674;19.320;2023-05-29T18:49:26;24.08;;;16.50;;
26578;SDS011;14227;47.674;19.320;2023-05-29T18:51:52;27.70;;;15.93;;
26578;SDS011;14227;47.674;19.320;2023-05-29T18:54:18;28.05;;;15.52;;
26578;SDS011;14227;47.674;19.320;2023-05-29T18:56:44;29.42;;;15.93;;
26578;SDS011;14227;47.674;19.320;2023-05-29T18:59:10;28.05;;;15.63;;
26578;SDS011;14227;47.674;19.320;2023-05-29T19:01:36;31.23;;;15.20;;
26578;SDS011;14227;47.674;19.320;2023-05-29T19:04:01;28.58;;;15.65;;
26578;SDS011;14227;47.674;19.320;2023-05-29T19:06:30;31.52;;;16.48;;
26578;SDS011;14227;47.674;19.320;2023-05-29T19:08:56;31.10;;;16.73;;
26578;SDS011;14227;47.674;19.320;2023-05-29T19:11:22;32.97;;;16.75;;
26578;SDS011;14227;47.674;19.320;2023-05-29T19:13:49;28.42;;;17.70;;
26578;SDS011;14227;47.674;19.320;2023-05-29T19:16:15;29.00;;;17.35;;
26578;SDS011;14227;47.674;19.320;2023-05-29T19:18:41;30.27;;;16.63;;
26578;SDS011;14227;47.674;19.320;2023-05-29T19:21:07;32.50;;;17.30;;
26578;SDS011;14227;47.674;19.320;2023-05-29T19:23:33;39.58;;;19.15;;
26578;SDS011;14227;47.674;19.320;2023-05-29T19:25:59;35.35;;;19.77;;
26578;SDS011;14227;47.674;19.320;2023-05-29T19:28:24;35.03;;;18.58;;